createdAt,value
2024-03-31T00:00:37.661Z,918.7
2024-03-31T00:15:36.814Z,918.9
2024-03-31T00:30:37.703Z,919.3
2024-03-31T00:45:38.570Z,919.7
2024-03-31T01:00:40.087Z,920.3
2024-03-31T01:15:39.825Z,921
2024-03-31T01:30:40.547Z,920
2024-03-31T01:45:41.995Z,919.2
2024-03-31T02:00:41.504Z,917.4
2024-03-31T02:15:42.519Z,918.6
2024-03-31T02:30:42.788Z,919.9
2024-03-31T02:45:48.246Z,918.3
2024-03-31T03:00:44.344Z,917.2
2024-03-31T03:15:44.648Z,916.6
2024-03-31T03:30:45.068Z,916.9
2024-03-31T03:45:46.140Z,916.8
2024-03-31T04:00:46.462Z,917.7
2024-03-31T04:15:47.255Z,918.4
2024-03-31T04:30:47.743Z,920.8
2024-03-31T04:45:49.914Z,920.9
2024-03-31T05:00:50.291Z,922.1
2024-03-31T05:07:48.978Z,923.4
2024-03-31T05:22:49.826Z,923.9
2024-03-31T05:37:52.108Z,923.6
2024-03-31T05:52:51.001Z,922.4
2024-03-31T06:07:51.991Z,921.3
2024-03-31T06:22:52.531Z,921.6
2024-03-31T06:37:55.758Z,921.6
2024-03-31T06:52:54.934Z,920.1
2024-03-31T07:07:54.993Z,921.2
2024-03-31T07:22:56.132Z,922
2024-03-31T07:37:56.009Z,919.7
2024-03-31T07:52:57.583Z,918.2
2024-03-31T08:07:57.932Z,918.5
2024-03-31T08:23:00.449Z,918.2
2024-03-31T08:38:06.153Z,917.9
2024-03-31T08:53:00.796Z,917.9
2024-03-31T09:08:03.352Z,917.9
2024-03-31T09:23:01.157Z,915
2024-03-31T09:53:04.484Z,915.4
2024-03-31T10:08:06.765Z,914.1
2024-03-31T10:23:04.734Z,913.8
2024-03-31T10:38:13.464Z,913.8
2024-03-31T10:53:08.780Z,913.8
2024-03-31T11:08:09.207Z,913.8
2024-03-31T11:23:11.132Z,913.6
2024-03-31T11:38:11.334Z,913.8
2024-03-31T11:53:09.604Z,913.6
2024-03-31T12:08:15.693Z,913.6
2024-03-31T12:23:18.395Z,913.6
2024-03-31T12:38:11.060Z,912.8
2024-03-31T12:53:11.687Z,913
2024-03-31T13:08:14.682Z,913
2024-03-31T13:23:13.964Z,913.4
2024-03-31T13:38:13.128Z,913
2024-03-31T13:53:15.798Z,913.1
2024-03-31T14:08:14.706Z,913.3
2024-03-31T14:23:15.725Z,913.4
2024-03-31T14:38:16.418Z,913.5
2024-03-31T14:53:17.121Z,913.6
2024-03-31T15:08:17.725Z,913.8
2024-03-31T15:23:23.621Z,913.8
2024-03-31T15:38:19.821Z,913.9
2024-03-31T15:53:19.052Z,914
2024-03-31T16:08:20.086Z,914.2
2024-03-31T16:23:21.030Z,913.9
2024-03-31T16:38:23.007Z,914.2
2024-03-31T16:53:22.291Z,914.2
2024-03-31T17:08:22.824Z,914.1
2024-03-31T17:23:24.755Z,913.9
2024-03-31T17:38:25.824Z,913.6
2024-03-31T17:53:29.571Z,913.6
2024-03-31T18:08:26.880Z,913.1
2024-03-31T18:23:28.036Z,913.1
2024-03-31T18:38:40.158Z,913.1
2024-03-31T18:53:29.762Z,913.2
2024-03-31T19:08:39.093Z,913.3
2024-03-31T19:23:34.201Z,913.7
2024-03-31T19:38:34.632Z,913.8
2024-03-31T19:53:37.914Z,913.9
2024-03-31T20:08:40.980Z,913.8
2024-03-31T20:23:37.727Z,914.2
2024-03-31T20:38:41.277Z,914.1
2024-03-31T20:53:37.526Z,914
2024-03-31T21:08:35.910Z,913.5
2024-03-31T21:23:37.533Z,913.4
2024-03-31T21:38:38.381Z,913.1
2024-03-31T21:53:40.761Z,913.1
2024-03-31T22:00:39.482Z,913.3
2024-03-31T22:15:38.529Z,913
2024-03-31T22:30:39.999Z,912.7
2024-03-31T22:45:39.821Z,912.4
2024-03-31T23:00:40.792Z,912.5
2024-03-31T23:15:40.895Z,912.3
2024-03-31T23:30:43.752Z,911.5
2024-03-31T23:45:43.899Z,910.9
